sensor_id;sensor_type;location;lat;lon;timestamp;pressure;altitude;pressure_sealevel;temperature;humidity
12897;BME280;6516;35.028;32.372;2022-08-30T00:01:07;99640.75;;;23.67;88.73
12897;BME280;6516;35.028;32.372;2022-08-30T00:03:36;99652.13;;;23.59;89.62
12897;BME280;6516;35.028;32.372;2022-08-30T00:06:08;99655.78;;;23.69;92.15
12897;BME280;6516;35.028;32.372;2022-08-30T00:08:37;99645.63;;;24.39;89.33
12897;BME280;6516;35.028;32.372;2022-08-30T00:11:07;99646.06;;;24.66;84.94
12897;BME280;6516;35.028;32.372;2022-08-30T00:13:39;99649.31;;;24.38;85.58
12897;BME280;6516;35.028;32.372;2022-08-30T00:16:09;99648.00;;;24.10;86.94
12897;BME280;6516;35.028;32.372;2022-08-30T00:18:39;99647.88;;;23.90;88.24
12897;BME280;6516;35.028;32.372;2022-08-30T00:21:08;99655.44;;;23.85;88.13
12897;BME280;6516;35.028;32.372;2022-08-30T00:23:37;99654.09;;;23.79;88.29
12897;BME280;6516;35.028;32.372;2022-08-30T00:26:06;99649.81;;;23.66;89.00
12897;BME280;6516;35.028;32.372;2022-08-30T00:28:34;99649.66;;;23.56;89.14
12897;BME280;6516;35.028;32.372;2022-08-30T00:31:02;99656.25;;;23.41;90.04
12897;BME280;6516;35.028;32.372;2022-08-30T00:33:31;99656.84;;;23.34;91.37
12897;BME280;6516;35.028;32.372;2022-08-30T00:36:01;99653.56;;;23.30;92.73
12897;BME280;6516;35.028;32.372;2022-08-30T00:38:29;99653.78;;;23.27;92.80
12897;BME280;6516;35.028;32.372;2022-08-30T00:40:57;99649.59;;;23.69;92.92
12897;BME280;6516;35.028;32.372;2022-08-30T00:43:28;99646.03;;;24.23;88.58
12897;BME280;6516;35.028;32.372;2022-08-30T00:45:58;99646.38;;;24.30;86.85
12897;BME280;6516;35.028;32.372;2022-08-30T00:48:29;99645.81;;;24.04;86.80
12897;BME280;6516;35.028;32.372;2022-08-30T00:51:01;99642.59;;;23.88;86.83
12897;BME280;6516;35.028;32.372;2022-08-30T00:53:34;99650.41;;;23.69;88.22
12897;BME280;6516;35.028;32.372;2022-08-30T00:56:04;99639.41;;;23.61;90.51
12897;BME280;6516;35.028;32.372;2022-08-30T00:58:35;99646.25;;;23.54;92.28
12897;BME280;6516;35.028;32.372;2022-08-30T01:01:05;99647.34;;;23.52;92.80
12897;BME280;6516;35.028;32.372;2022-08-30T01:03:34;99644.56;;;23.53;93.72
12897;BME280;6516;35.028;32.372;2022-08-30T01:06:05;99643.69;;;23.53;94.34
12897;BME280;6516;35.028;32.372;2022-08-30T01:08:34;99640.03;;;23.54;94.91
12897;BME280;6516;35.028;32.372;2022-08-30T01:11:02;99646.25;;;23.54;94.53
12897;BME280;6516;35.028;32.372;2022-08-30T01:13:31;99641.97;;;23.52;93.55
12897;BME280;6516;35.028;32.372;2022-08-30T01:16:01;99640.34;;;23.38;92.17
12897;BME280;6516;35.028;32.372;2022-08-30T01:18:29;99645.84;;;23.26;92.15
12897;BME280;6516;35.028;32.372;2022-08-30T01:21:04;99633.47;;;24.02;90.90
12897;BME280;6516;35.028;32.372;2022-08-30T01:23:41;99634.44;;;24.65;86.65
12897;BME280;6516;35.028;32.372;2022-08-30T01:26:10;99629.75;;;24.14;87.39
12897;BME280;6516;35.028;32.372;2022-08-30T01:28:39;99640.69;;;23.90;87.67
12897;BME280;6516;35.028;32.372;2022-08-30T01:31:08;99647.38;;;23.74;88.71
12897;BME280;6516;35.028;32.372;2022-08-30T01:33:36;99641.25;;;23.61;90.02
12897;BME280;6516;35.028;32.372;2022-08-30T01:36:07;99635.97;;;23.48;91.28
12897;BME280;6516;35.028;32.372;2022-08-30T01:38:43;99642.72;;;23.43;91.60
12897;BME280;6516;35.028;32.372;2022-08-30T01:41:16;99641.84;;;23.31;91.99
12897;BME280;6516;35.028;32.372;2022-08-30T01:43:45;99641.34;;;23.26;92.52
12897;BME280;6516;35.028;32.372;2022-08-30T01:46:16;99641.44;;;23.25;93.35
12897;BME280;6516;35.028;32.372;2022-08-30T01:48:45;99644.38;;;23.22;93.92
12897;BME280;6516;35.028;32.372;2022-08-30T01:51:13;99643.72;;;23.18;93.85
12897;BME280;6516;35.028;32.372;2022-08-30T01:53:44;99643.09;;;23.15;94.06
12897;BME280;6516;35.028;32.372;2022-08-30T01:56:12;99646.63;;;23.15;94.25
12897;BME280;6516;35.028;32.372;2022-08-30T01:58:41;99640.28;;;23.16;94.76
12897;BME280;6516;35.028;32.372;2022-08-30T02:01:11;99652.75;;;23.17;95.03
12897;BME280;6516;35.028;32.372;2022-08-30T02:03:42;99646.50;;;23.17;95.65
12897;BME280;6516;35.028;32.372;2022-08-30T02:06:13;99645.66;;;23.16;95.58
12897;BME280;6516;35.028;32.372;2022-08-30T02:08:43;99639.66;;;23.69;95.40
12897;BME280;6516;35.028;32.372;2022-08-30T02:11:12;99641.50;;;24.13;92.94
12897;BME280;6516;35.028;32.372;2022-08-30T02:13:42;99638.25;;;23.98;91.67
12897;BME280;6516;35.028;32.372;2022-08-30T02:16:14;99639.06;;;23.88;92.07
12897;BME280;6516;35.028;32.372;2022-08-30T02:18:44;99648.69;;;23.79;92.50
12897;BME280;6516;35.028;32.372;2022-08-30T02:21:12;99645.03;;;23.69;92.68
12897;BME280;6516;35.028;32.372;2022-08-30T02:23:41;99651.16;;;23.60;93.46
12897;BME280;6516;35.028;32.372;2022-08-30T02:26:11;99643.56;;;23.54;93.65
12897;BME280;6516;35.028;32.372;2022-08-30T02:28:40;99647.47;;;23.50;93.56
12897;BME280;6516;35.028;32.372;2022-08-30T02:31:08;99653.94;;;23.48;94.10
12897;BME280;6516;35.028;32.372;2022-08-30T02:33:36;99645.66;;;23.51;94.61
12897;BME280;6516;35.028;32.372;2022-08-30T02:36:05;99649.41;;;23.37;94.36
12897;BME280;6516;35.028;32.372;2022-08-30T02:38:34;99643.25;;;23.24;93.33
12897;BME280;6516;35.028;32.372;2022-08-30T02:41:04;99652.75;;;23.17;93.97
12897;BME280;6516;35.028;32.372;2022-08-30T02:43:32;99657.25;;;23.17;95.44
12897;BME280;6516;35.028;32.372;2022-08-30T02:46:00;99650.84;;;23.19;95.38
12897;BME280;6516;35.028;32.372;2022-08-30T02:48:27;99651.78;;;23.18;95.57
12897;BME280;6516;35.028;32.372;2022-08-30T02:50:56;99654.47;;;23.18;95.87
12897;BME280;6516;35.028;32.372;2022-08-30T02:53:31;99647.22;;;23.42;96.87
12897;BME280;6516;35.028;32.372;2022-08-30T02:55:58;99644.94;;;23.71;95.70
12897;BME280;6516;35.028;32.372;2022-08-30T02:58:28;99645.78;;;23.93;92.38
12897;BME280;6516;35.028;32.372;2022-08-30T03:00:55;99647.75;;;23.80;92.28
12897;BME280;6516;35.028;32.372;2022-08-30T03:03:23;99647.00;;;23.67;92.52
12897;BME280;6516;35.028;32.372;2022-08-30T03:05:51;99646.25;;;23.54;92.27
12897;BME280;6516;35.028;32.372;2022-08-30T03:08:19;99651.09;;;23.38;92.63
12897;BME280;6516;35.028;32.372;2022-08-30T03:10:47;99651.47;;;23.34;93.06
12897;BME280;6516;35.028;32.372;2022-08-30T03:13:15;99649.41;;;23.26;94.00
12897;BME280;6516;35.028;32.372;2022-08-30T03:15:44;99648.03;;;23.21;94.71
12897;BME280;6516;35.028;32.372;2022-08-30T03:18:15;99647.16;;;23.20;94.63
12897;BME280;6516;35.028;32.372;2022-08-30T03:20:43;99645.25;;;23.10;94.60
12897;BME280;6516;35.028;32.372;2022-08-30T03:23:11;99654.66;;;23.04;94.67
12897;BME280;6516;35.028;32.372;2022-08-30T03:25:39;99652.44;;;22.98;95.76
12897;BME280;6516;35.028;32.372;2022-08-30T03:28:06;99654.38;;;22.96;96.18
12897;BME280;6516;35.028;32.372;2022-08-30T03:30:34;99657.81;;;22.98;96.74
12897;BME280;6516;35.028;32.372;2022-08-30T03:33:04;99655.97;;;22.99;96.93
12897;BME280;6516;35.028;32.372;2022-08-30T03:35:32;99666.13;;;23.41;98.24
12897;BME280;6516;35.028;32.372;2022-08-30T03:38:00;99659.97;;;24.06;94.00
12897;BME280;6516;35.028;32.372;2022-08-30T03:40:28;99659.34;;;24.14;89.37
12897;BME280;6516;35.028;32.372;2022-08-30T03:42:56;99657.31;;;23.95;90.59
12897;BME280;6516;35.028;32.372;2022-08-30T03:45:23;99667.41;;;23.81;91.10
12897;BME280;6516;35.028;32.372;2022-08-30T03:47:51;99663.75;;;23.71;91.66
12897;BME280;6516;35.028;32.372;2022-08-30T03:50:21;99669.72;;;23.63;92.64
12897;BME280;6516;35.028;32.372;2022-08-30T03:52:49;99671.28;;;23.55;92.93
12897;BME280;6516;35.028;32.372;2022-08-30T03:55:17;99676.53;;;23.45;92.43
12897;BME280;6516;35.028;32.372;2022-08-30T03:57:45;99680.44;;;23.41;92.13
12897;BME280;6516;35.028;32.372;2022-08-30T04:00:14;99681.88;;;23.34;91.82
12897;BME280;6516;35.028;32.372;2022-08-30T04:02:43;99680.44;;;23.30;92.49
12897;BME280;6516;35.028;32.372;2022-08-30T04:05:11;99685.31;;;23.36;93.43
12897;BME280;6516;35.028;32.372;2022-08-30T04:07:41;99682.75;;;23.46;93.85
12897;BME280;6516;35.028;32.372;2022-08-30T04:10:09;99667.75;;;23.54;94.25
12897;BME280;6516;35.028;32.372;2022-08-30T04:12:37;99671.22;;;23.67;93.42
12897;BME280;6516;35.028;32.372;2022-08-30T04:15:06;99676.69;;;23.77;93.20
12897;BME280;6516;35.028;32.372;2022-08-30T04:17:36;99672.84;;;23.92;93.02
12897;BME280;6516;35.028;32.372;2022-08-30T04:20:04;99673.81;;;24.02;92.38
12897;BME280;6516;35.028;32.372;2022-08-30T04:22:33;99673.06;;;24.11;91.93
12897;BME280;6516;35.028;32.372;2022-08-30T04:25:03;99666.69;;;24.23;91.82
12897;BME280;6516;35.028;32.372;2022-08-30T04:27:31;99663.75;;;24.37;92.22
12897;BME280;6516;35.028;32.372;2022-08-30T04:30:00;99671.66;;;24.49;92.45
12897;BME280;6516;35.028;32.372;2022-08-30T04:32:28;99670.53;;;24.63;92.44
12897;BME280;6516;35.028;32.372;2022-08-30T04:34:56;99674.53;;;24.79;92.62
12897;BME280;6516;35.028;32.372;2022-08-30T04:37:25;99673.25;;;24.94;92.59
12897;BME280;6516;35.028;32.372;2022-08-30T04:39:54;99671.72;;;25.12;92.18
12897;BME280;6516;35.028;32.372;2022-08-30T04:42:26;99679.09;;;25.31;91.49
12897;BME280;6516;35.028;32.372;2022-08-30T04:44:56;99678.97;;;25.53;91.58
12897;BME280;6516;35.028;32.372;2022-08-30T04:47:25;99678.94;;;25.73;90.67
12897;BME280;6516;35.028;32.372;2022-08-30T04:49:53;99676.69;;;25.99;89.12
12897;BME280;6516;35.028;32.372;2022-08-30T04:52:21;99680.50;;;26.26;88.52
12897;BME280;6516;35.028;32.372;2022-08-30T04:54:53;99684.56;;;26.51;87.12
12897;BME280;6516;35.028;32.372;2022-08-30T04:57:21;99682.22;;;26.76;86.26
12897;BME280;6516;35.028;32.372;2022-08-30T04:59:51;99680.38;;;27.05;85.15
12897;BME280;6516;35.028;32.372;2022-08-30T05:02:19;99678.13;;;27.30;82.99
12897;BME280;6516;35.028;32.372;2022-08-30T05:04:47;99683.19;;;27.52;81.00
12897;BME280;6516;35.028;32.372;2022-08-30T05:07:32;99680.03;;;27.85;81.40
12897;BME280;6516;35.028;32.372;2022-08-30T05:10:00;99674.56;;;28.04;78.98
12897;BME280;6516;35.028;32.372;2022-08-30T05:12:28;99678.56;;;28.27;78.36
12897;BME280;6516;35.028;32.372;2022-08-30T05:14:58;99689.47;;;28.44;76.48
12897;BME280;6516;35.028;32.372;2022-08-30T05:17:27;99683.97;;;28.63;76.50
12897;BME280;6516;35.028;32.372;2022-08-30T05:19:55;99690.72;;;28.77;74.87
12897;BME280;6516;35.028;32.372;2022-08-30T05:22:23;99689.81;;;28.86;72.80
12897;BME280;6516;35.028;32.372;2022-08-30T05:24:51;99687.31;;;29.02;72.54
12897;BME280;6516;35.028;32.372;2022-08-30T05:27:19;99687.34;;;29.10;71.27
12897;BME280;6516;35.028;32.372;2022-08-30T05:29:46;99693.47;;;29.29;71.88
12897;BME280;6516;35.028;32.372;2022-08-30T05:32:16;99698.72;;;29.48;70.60
12897;BME280;6516;35.028;32.372;2022-08-30T05:34:44;99694.94;;;29.59;69.63
12897;BME280;6516;35.028;32.372;2022-08-30T05:37:11;99694.47;;;29.63;66.38
12897;BME280;6516;35.028;32.372;2022-08-30T05:39:39;99690.63;;;29.74;67.46
12897;BME280;6516;35.028;32.372;2022-08-30T05:42:07;99693.88;;;30.03;66.83
12897;BME280;6516;35.028;32.372;2022-08-30T05:44:35;99691.94;;;30.13;67.50
12897;BME280;6516;35.028;32.372;2022-08-30T05:47:03;99693.16;;;30.18;66.66
12897;BME280;6516;35.028;32.372;2022-08-30T05:49:33;99704.63;;;30.38;65.15
12897;BME280;6516;35.028;32.372;2022-08-30T05:52:02;99702.28;;;30.43;64.77
12897;BME280;6516;35.028;32.372;2022-08-30T05:54:30;99698.56;;;30.60;64.62
12897;BME280;6516;35.028;32.372;2022-08-30T05:56:59;99709.22;;;30.87;63.75
12897;BME280;6516;35.028;32.372;2022-08-30T05:59:26;99711.13;;;31.02;62.71
12897;BME280;6516;35.028;32.372;2022-08-30T06:01:56;99712.00;;;31.19;62.49
12897;BME280;6516;35.028;32.372;2022-08-30T06:04:24;99716.47;;;31.28;62.13
12897;BME280;6516;35.028;32.372;2022-08-30T06:06:54;99708.66;;;31.49;62.19
12897;BME280;6516;35.028;32.372;2022-08-30T06:09:22;99711.88;;;31.60;61.05
12897;BME280;6516;35.028;32.372;2022-08-30T06:11:49;99711.88;;;31.68;60.93
12897;BME280;6516;35.028;32.372;2022-08-30T06:14:17;99710.88;;;31.85;60.56
12897;BME280;6516;35.028;32.372;2022-08-30T06:16:45;99711.00;;;32.00;60.29
12897;BME280;6516;35.028;32.372;2022-08-30T06:19:14;99711.47;;;32.19;59.07
12897;BME280;6516;35.028;32.372;2022-08-30T06:21:45;99722.53;;;32.34;59.08
12897;BME280;6516;35.028;32.372;2022-08-30T06:24:15;99718.53;;;32.52;57.81
12897;BME280;6516;35.028;32.372;2022-08-30T06:26:45;99717.78;;;32.66;57.40
12897;BME280;6516;35.028;32.372;2022-08-30T06:29:15;99725.06;;;32.82;57.30
12897;BME280;6516;35.028;32.372;2022-08-30T06:31:44;99714.69;;;33.08;55.85
12897;BME280;6516;35.028;32.372;2022-08-30T06:34:12;99728.66;;;33.13;54.86
12897;BME280;6516;35.028;32.372;2022-08-30T06:36:40;99721.19;;;33.29;55.39
12897;BME280;6516;35.028;32.372;2022-08-30T06:39:09;99731.91;;;33.39;55.02
12897;BME280;6516;35.028;32.372;2022-08-30T06:41:39;99730.47;;;33.51;54.89
12897;BME280;6516;35.028;32.372;2022-08-30T06:44:08;99737.31;;;33.47;54.69
12897;BME280;6516;35.028;32.372;2022-08-30T06:46:37;99742.81;;;33.61;54.75
12897;BME280;6516;35.028;32.372;2022-08-30T06:49:06;99743.22;;;33.73;54.21
12897;BME280;6516;35.028;32.372;2022-08-30T06:51:36;99742.16;;;33.82;54.38
12897;BME280;6516;35.028;32.372;2022-08-30T06:54:07;99750.22;;;33.76;54.76
12897;BME280;6516;35.028;32.372;2022-08-30T06:56:35;99741.38;;;33.96;54.13
12897;BME280;6516;35.028;32.372;2022-08-30T06:59:05;99748.06;;;34.08;54.58
12897;BME280;6516;35.028;32.372;2022-08-30T07:01:33;99756.34;;;34.15;54.07
12897;BME280;6516;35.028;32.372;2022-08-30T07:04:01;99750.63;;;34.24;54.45
12897;BME280;6516;35.028;32.372;2022-08-30T07:06:30;99753.72;;;34.21;53.96
12897;BME280;6516;35.028;32.372;2022-08-30T07:08:59;99749.06;;;34.44;53.81
12897;BME280;6516;35.028;32.372;2022-08-30T07:11:29;99752.16;;;34.56;53.35
12897;BME280;6516;35.028;32.372;2022-08-30T07:14:00;99760.75;;;34.67;52.60
12897;BME280;6516;35.028;32.372;2022-08-30T07:16:29;99760.66;;;34.75;52.48
12897;BME280;6516;35.028;32.372;2022-08-30T07:18:57;99755.28;;;34.96;51.60
12897;BME280;6516;35.028;32.372;2022-08-30T07:21:26;99758.19;;;35.09;50.36
12897;BME280;6516;35.028;32.372;2022-08-30T07:23:56;99764.44;;;35.24;49.81
12897;BME280;6516;35.028;32.372;2022-08-30T07:26:26;99767.81;;;35.41;49.99
12897;BME280;6516;35.028;32.372;2022-08-30T07:28:55;99773.69;;;35.38;49.43
12897;BME280;6516;35.028;32.372;2022-08-30T07:31:25;99767.44;;;35.44;49.87
12897;BME280;6516;35.028;32.372;2022-08-30T07:33:53;99772.66;;;35.39;49.42
12897;BME280;6516;35.028;32.372;2022-08-30T07:36:22;99769.78;;;35.47;50.37
12897;BME280;6516;35.028;32.372;2022-08-30T07:38:51;99773.38;;;35.47;49.51
12897;BME280;6516;35.028;32.372;2022-08-30T07:41:21;99769.03;;;35.74;49.36
12897;BME280;6516;35.028;32.372;2022-08-30T07:43:51;99778.66;;;35.49;49.45
12897;BME280;6516;35.028;32.372;2022-08-30T07:46:20;99769.72;;;35.61;49.98
12897;BME280;6516;35.028;32.372;2022-08-30T07:48:50;99765.91;;;35.77;48.86
12897;BME280;6516;35.028;32.372;2022-08-30T07:51:21;99769.41;;;35.92;48.92
12897;BME280;6516;35.028;32.372;2022-08-30T07:53:51;99766.31;;;36.01;49.57
12897;BME280;6516;35.028;32.372;2022-08-30T07:56:19;99771.78;;;36.22;48.51
12897;BME280;6516;35.028;32.372;2022-08-30T07:58:48;99783.41;;;36.24;47.79
12897;BME280;6516;35.028;32.372;2022-08-30T08:01:17;99774.13;;;36.25;47.11
12897;BME280;6516;35.028;32.372;2022-08-30T08:03:46;99778.47;;;36.20;47.05
12897;BME280;6516;35.028;32.372;2022-08-30T08:06:19;99771.91;;;36.42;47.88
12897;BME280;6516;35.028;32.372;2022-08-30T08:08:48;99777.53;;;36.27;47.91
12897;BME280;6516;35.028;32.372;2022-08-30T08:11:19;99771.72;;;36.43;47.58
12897;BME280;6516;35.028;32.372;2022-08-30T08:13:49;99771.72;;;36.43;47.08
12897;BME280;6516;35.028;32.372;2022-08-30T08:16:19;99778.94;;;36.51;47.33
12897;BME280;6516;35.028;32.372;2022-08-30T08:18:48;99771.81;;;36.56;46.73
12897;BME280;6516;35.028;32.372;2022-08-30T08:21:17;99776.69;;;36.06;48.21
12897;BME280;6516;35.028;32.372;2022-08-30T08:23:45;99765.56;;;36.14;48.44
12897;BME280;6516;35.028;32.372;2022-08-30T08:26:13;99776.41;;;35.73;49.00
12897;BME280;6516;35.028;32.372;2022-08-30T08:28:41;99781.91;;;35.59;50.52
12897;BME280;6516;35.028;32.372;2022-08-30T08:31:14;99770.00;;;35.87;49.52
12897;BME280;6516;35.028;32.372;2022-08-30T08:33:42;99776.88;;;35.62;49.72
12897;BME280;6516;35.028;32.372;2022-08-30T08:36:10;99777.72;;;35.77;49.76
12897;BME280;6516;35.028;32.372;2022-08-30T08:38:40;99779.72;;;35.90;49.39
12897;BME280;6516;35.028;32.372;2022-08-30T08:41:15;99773.78;;;36.14;48.43
12897;BME280;6516;35.028;32.372;2022-08-30T08:43:52;99776.88;;;36.04;49.07
12897;BME280;6516;35.028;32.372;2022-08-30T08:46:25;99779.16;;;36.22;48.72
12897;BME280;6516;35.028;32.372;2022-08-30T08:48:57;99771.50;;;36.17;48.69
12897;BME280;6516;35.028;32.372;2022-08-30T08:51:33;99772.69;;;36.08;48.99
12897;BME280;6516;35.028;32.372;2022-08-30T08:54:26;99767.38;;;36.00;48.11
12897;BME280;6516;35.028;32.372;2022-08-30T08:56:58;99770.13;;;35.79;48.53
12897;BME280;6516;35.028;32.372;2022-08-30T08:59:26;99760.91;;;35.87;49.61
12897;BME280;6516;35.028;32.372;2022-08-30T09:01:58;99762.78;;;36.07;48.26
12897;BME280;6516;35.028;32.372;2022-08-30T09:04:32;99759.88;;;36.36;46.84
12897;BME280;6516;35.028;32.372;2022-08-30T09:07:05;99767.88;;;36.38;46.68
12897;BME280;6516;35.028;32.372;2022-08-30T09:09:41;99762.63;;;36.70;45.44
12897;BME280;6516;35.028;32.372;2022-08-30T09:12:10;99755.31;;;36.90;45.16
12897;BME280;6516;35.028;32.372;2022-08-30T09:14:40;99751.88;;;37.29;44.51
12897;BME280;6516;35.028;32.372;2022-08-30T09:17:12;99757.22;;;37.43;43.76
12897;BME280;6516;35.028;32.372;2022-08-30T09:19:42;99753.88;;;37.54;43.89
12897;BME280;6516;35.028;32.372;2022-08-30T09:22:15;99765.00;;;37.27;44.00
12897;BME280;6516;35.028;32.372;2022-08-30T09:24:54;99768.38;;;37.35;44.05
12897;BME280;6516;35.028;32.372;2022-08-30T09:27:30;99767.41;;;37.02;46.08
12897;BME280;6516;35.028;32.372;2022-08-30T09:30:04;99772.56;;;36.78;46.33
12897;BME280;6516;35.028;32.372;2022-08-30T09:32:38;99764.50;;;37.10;45.99
12897;BME280;6516;35.028;32.372;2022-08-30T09:35:10;99768.06;;;37.04;45.85
12897;BME280;6516;35.028;32.372;2022-08-30T09:37:45;99770.25;;;36.81;46.39
12897;BME280;6516;35.028;32.372;2022-08-30T09:40:25;99768.66;;;36.59;47.67
12897;BME280;6516;35.028;32.372;2022-08-30T09:43:05;99765.75;;;36.67;47.09
12897;BME280;6516;35.028;32.372;2022-08-30T09:45:36;99771.25;;;36.33;47.58
12897;BME280;6516;35.028;32.372;2022-08-30T09:48:22;99776.56;;;36.41;46.73
12897;BME280;6516;35.028;32.372;2022-08-30T09:51:02;99763.56;;;36.56;47.24
12897;BME280;6516;35.028;32.372;2022-08-30T09:53:42;99761.50;;;36.65;47.91
12897;BME280;6516;35.028;32.372;2022-08-30T09:56:18;99760.13;;;36.41;48.53
12897;BME280;6516;35.028;32.372;2022-08-30T09:59:00;99754.00;;;36.46;47.84
12897;BME280;6516;35.028;32.372;2022-08-30T10:01:35;99755.03;;;36.72;46.87
12897;BME280;6516;35.028;32.372;2022-08-30T10:04:12;99765.09;;;36.65;46.97
12897;BME280;6516;35.028;32.372;2022-08-30T10:06:51;99752.66;;;36.35;48.33
12897;BME280;6516;35.028;32.372;2022-08-30T10:09:28;99763.97;;;36.53;47.22
12897;BME280;6516;35.028;32.372;2022-08-30T10:12:04;99754.47;;;36.56;47.05
12897;BME280;6516;35.028;32.372;2022-08-30T10:14:46;99759.13;;;36.55;47.40
12897;BME280;6516;35.028;32.372;2022-08-30T10:17:30;99763.38;;;36.58;47.47
12897;BME280;6516;35.028;32.372;2022-08-30T10:20:14;99771.63;;;36.30;48.62
12897;BME280;6516;35.028;32.372;2022-08-30T10:22:48;99770.75;;;36.02;48.67
12897;BME280;6516;35.028;32.372;2022-08-30T10:25:23;99771.28;;;35.49;50.64
12897;BME280;6516;35.028;32.372;2022-08-30T10:27:59;99773.00;;;35.50;50.20
12897;BME280;6516;35.028;32.372;2022-08-30T10:30:32;99769.63;;;35.34;50.91
12897;BME280;6516;35.028;32.372;2022-08-30T10:33:06;99771.81;;;35.24;51.31
12897;BME280;6516;35.028;32.372;2022-08-30T10:35:40;99783.22;;;34.92;52.12
12897;BME280;6516;35.028;32.372;2022-08-30T10:38:15;99781.06;;;34.87;51.94
12897;BME280;6516;35.028;32.372;2022-08-30T10:40:50;99782.81;;;34.66;52.37
12897;BME280;6516;35.028;32.372;2022-08-30T10:43:44;99778.69;;;34.55;53.17
12897;BME280;6516;35.028;32.372;2022-08-30T10:46:21;99777.44;;;34.43;53.08
12897;BME280;6516;35.028;32.372;2022-08-30T10:48:54;99771.44;;;34.11;53.73
12897;BME280;6516;35.028;32.372;2022-08-30T10:51:29;99772.94;;;33.99;54.51
12897;BME280;6516;35.028;32.372;2022-08-30T10:54:06;99769.47;;;34.19;54.24
12897;BME280;6516;35.028;32.372;2022-08-30T10:56:39;99775.25;;;34.24;54.15
12897;BME280;6516;35.028;32.372;2022-08-30T10:59:11;99770.38;;;34.34;53.52
12897;BME280;6516;35.028;32.372;2022-08-30T11:01:58;99762.53;;;34.31;54.28
12897;BME280;6516;35.028;32.372;2022-08-30T11:05:20;99766.53;;;34.21;53.98
12897;BME280;6516;35.028;32.372;2022-08-30T11:08:09;99763.72;;;34.29;53.15
12897;BME280;6516;35.028;32.372;2022-08-30T11:10:51;99763.63;;;34.22;53.09
12897;BME280;6516;35.028;32.372;2022-08-30T11:13:29;99758.84;;;34.24;53.62
12897;BME280;6516;35.028;32.372;2022-08-30T11:16:02;99760.06;;;34.22;53.03
12897;BME280;6516;35.028;32.372;2022-08-30T11:18:40;99758.31;;;34.43;53.02
12897;BME280;6516;35.028;32.372;2022-08-30T11:21:19;99749.06;;;34.44;53.27
12897;BME280;6516;35.028;32.372;2022-08-30T11:24:11;99754.53;;;34.59;52.54
12897;BME280;6516;35.028;32.372;2022-08-30T11:26:57;99750.75;;;34.45;51.97
12897;BME280;6516;35.028;32.372;2022-08-30T11:29:31;99756.16;;;34.82;51.50
12897;BME280;6516;35.028;32.372;2022-08-30T11:35:38;99744.44;;;34.88;51.71
12897;BME280;6516;35.028;32.372;2022-08-30T11:38:19;99748.00;;;34.89;51.71
12897;BME280;6516;35.028;32.372;2022-08-30T11:41:36;99751.75;;;35.02;51.33
12897;BME280;6516;35.028;32.372;2022-08-30T11:44:14;99749.09;;;35.09;51.07
12897;BME280;6516;35.028;32.372;2022-08-30T11:46:55;99749.66;;;35.04;50.16
12897;BME280;6516;35.028;32.372;2022-08-30T11:49:50;99743.81;;;35.07;50.22
12897;BME280;6516;35.028;32.372;2022-08-30T11:52:38;99739.06;;;35.16;50.73
12897;BME280;6516;35.028;32.372;2022-08-30T11:55:41;99745.13;;;35.11;49.65
12897;BME280;6516;35.028;32.372;2022-08-30T11:58:28;99732.31;;;34.97;50.60
12897;BME280;6516;35.028;32.372;2022-08-30T12:01:21;99731.50;;;35.18;50.41
12897;BME280;6516;35.028;32.372;2022-08-30T12:04:03;99720.06;;;35.29;49.93
12897;BME280;6516;35.028;32.372;2022-08-30T12:06:50;99721.69;;;35.23;49.57
12897;BME280;6516;35.028;32.372;2022-08-30T12:12:53;99721.59;;;34.81;49.33
12897;BME280;6516;35.028;32.372;2022-08-30T12:18:29;99720.56;;;34.82;49.42
12897;BME280;6516;35.028;32.372;2022-08-30T12:21:11;99721.13;;;34.92;50.07
12897;BME280;6516;35.028;32.372;2022-08-30T12:23:53;99715.97;;;35.04;49.38
12897;BME280;6516;35.028;32.372;2022-08-30T12:26:31;99712.63;;;34.73;51.15
12897;BME280;6516;35.028;32.372;2022-08-30T12:29:15;99709.97;;;34.94;49.45
12897;BME280;6516;35.028;32.372;2022-08-30T12:31:49;99709.16;;;34.79;52.06
12897;BME280;6516;35.028;32.372;2022-08-30T12:34:25;99706.09;;;34.88;50.13
12897;BME280;6516;35.028;32.372;2022-08-30T12:36:58;99708.66;;;34.90;50.39
12897;BME280;6516;35.028;32.372;2022-08-30T12:39:33;99713.34;;;34.96;50.92
12897;BME280;6516;35.028;32.372;2022-08-30T12:42:13;99705.31;;;34.94;50.50
12897;BME280;6516;35.028;32.372;2022-08-30T12:44:45;99705.06;;;34.89;49.42
12897;BME280;6516;35.028;32.372;2022-08-30T12:47:17;99710.63;;;34.81;50.04
12897;BME280;6516;35.028;32.372;2022-08-30T12:49:48;99708.84;;;34.88;50.36
12897;BME280;6516;35.028;32.372;2022-08-30T12:52:26;99702.19;;;35.12;49.03
12897;BME280;6516;35.028;32.372;2022-08-30T12:55:09;99693.47;;;34.87;50.16
12897;BME280;6516;35.028;32.372;2022-08-30T12:57:41;99697.16;;;34.80;50.46
12897;BME280;6516;35.028;32.372;2022-08-30T13:00:21;99697.91;;;34.88;49.84
12897;BME280;6516;35.028;32.372;2022-08-30T13:02:52;99696.31;;;34.79;50.67
12897;BME280;6516;35.028;32.372;2022-08-30T13:05:33;99691.38;;;34.89;49.73
12897;BME280;6516;35.028;32.372;2022-08-30T13:08:17;99689.22;;;34.70;50.77
12897;BME280;6516;35.028;32.372;2022-08-30T13:10:54;99688.28;;;34.63;51.10
12897;BME280;6516;35.028;32.372;2022-08-30T13:13:34;99690.78;;;34.44;51.99
12897;BME280;6516;35.028;32.372;2022-08-30T13:16:10;99695.31;;;34.37;52.69
12897;BME280;6516;35.028;32.372;2022-08-30T13:18:48;99690.69;;;34.37;51.88
12897;BME280;6516;35.028;32.372;2022-08-30T13:21:26;99689.44;;;34.25;52.90
12897;BME280;6516;35.028;32.372;2022-08-30T13:23:57;99691.13;;;34.26;52.47
12897;BME280;6516;35.028;32.372;2022-08-30T13:26:30;99690.84;;;34.21;52.35
12897;BME280;6516;35.028;32.372;2022-08-30T13:29:04;99688.69;;;34.02;52.49
12897;BME280;6516;35.028;32.372;2022-08-30T13:31:33;99692.00;;;33.75;53.08
12897;BME280;6516;35.028;32.372;2022-08-30T13:34:01;99690.84;;;33.55;52.06
12897;BME280;6516;35.028;32.372;2022-08-30T13:36:31;99685.56;;;33.53;53.73